SAP weather

Ramón Villeda Morales International Airport
San Pedro Sula, Cortes, Honduras

Public forecast

Using degrees Celsius for public forecast. Weather courtesy of forecast.io.

Current aviation weather report (METAR) for Ramón Villeda Morales International Airport

Retrieved 2020/06/01 01:00 UTC (1 hour ago):

MHLM 010100Z 19003KT 9999 FEW030 OVC080 26/25 Q1009 A2980

Aviation forecast (TAF) for Ramón Villeda Morales International Airport

Retrieved 2020-06-01 00:45 UTC (1 hour ago):

TAF MHLM 312225Z 0100/0124 22005KT 8000 -RA SCT025 OVC080 TX32/0120Z TN22/0112Z BECMG 0106/0108 8000 VCSH FEW004 SCT024 BKN080 BECMG 0112/0114 9999 NSW FEW026 SCT090 TEMPO 0122/0124 0300 03008KT 6000 TSRA SCT026CB SCT080